createdAt,value
2019-05-18T00:06:54.331Z,60.4
2019-05-18T00:23:40.733Z,60.4
2019-05-18T00:40:27.187Z,60.4
2019-05-18T00:57:13.418Z,60.4
2019-05-18T01:14:00.297Z,60.4
2019-05-18T01:30:45.758Z,60.4
2019-05-18T01:47:32.350Z,60.4
2019-05-18T02:04:17.568Z,60.8
2019-05-18T02:21:03.353Z,60.8
2019-05-18T02:37:49.158Z,60.8
2019-05-18T02:54:34.712Z,60.8
2019-05-18T03:11:20.318Z,60.8
2019-05-18T03:28:05.836Z,60.4
2019-05-18T03:44:51.321Z,60.4
2019-05-18T04:01:36.785Z,60.4
2019-05-18T04:18:22.105Z,60.4
2019-05-18T04:35:07.624Z,60.4
2019-05-18T04:51:53.127Z,60.0
2019-05-18T05:08:38.882Z,60.0
2019-05-18T05:18:42.793Z,59.6
2019-05-18T05:35:29.840Z,58.4
2019-05-18T05:52:17.132Z,57.6
2019-05-18T06:09:04.719Z,57.2
2019-05-18T06:25:53.099Z,56.8
2019-05-18T06:42:40.501Z,56.4
2019-05-18T06:59:28.751Z,56.0
2019-05-18T07:16:17.382Z,55.2
2019-05-18T07:33:06.104Z,55.2
2019-05-18T07:49:54.752Z,55.2
2019-05-18T08:06:43.380Z,56.4
2019-05-18T08:23:32.077Z,56.8
2019-05-18T08:40:20.971Z,57.2
2019-05-18T08:57:09.957Z,57.2
2019-05-18T09:13:59.189Z,56.8
2019-05-18T09:30:48.529Z,57.2
2019-05-18T09:47:38.034Z,56.4
2019-05-18T10:04:27.711Z,56.4
2019-05-18T10:21:25.991Z,56.4
2019-05-18T10:38:10.446Z,56.0
2019-05-18T10:54:56.457Z,56.4
2019-05-18T11:11:46.166Z,56.4
2019-05-18T11:28:35.756Z,56.4
2019-05-18T11:45:25.670Z,56.4
2019-05-18T12:02:15.735Z,56.0
2019-05-18T12:19:06.106Z,56.0
2019-05-18T12:35:56.076Z,56.0
2019-05-18T12:52:46.032Z,56.0
2019-05-18T13:09:36.378Z,55.6
2019-05-18T13:26:26.915Z,55.6
2019-05-18T13:36:33.415Z,53.6
2019-05-18T13:53:23.783Z,55.2
2019-05-18T14:10:14.654Z,54.8
2019-05-18T14:25:23.443Z,56.8
2019-05-18T14:42:13.603Z,57.2
2019-05-18T14:52:19.670Z,55.2
2019-05-18T15:00:44.578Z,53.2
2019-05-18T15:05:47.665Z,51.2
2019-05-18T15:22:37.998Z,52.4
2019-05-18T15:27:41.830Z,50.0
2019-05-18T15:44:31.450Z,51.6
2019-05-18T15:57:59.747Z,53.6
2019-05-18T16:09:46.992Z,51.2
2019-05-18T16:24:56.969Z,53.2
2019-05-18T16:35:02.474Z,55.2
2019-05-18T16:51:52.087Z,53.2
2019-05-18T17:08:42.055Z,51.6
2019-05-18T17:25:31.816Z,51.6
2019-05-18T17:42:21.596Z,52.0
2019-05-18T17:59:11.426Z,52.8
2019-05-18T18:16:01.214Z,52.4
2019-05-18T18:27:47.795Z,54.8
2019-05-18T18:44:37.441Z,56.0
2019-05-18T19:01:26.785Z,56.4
2019-05-18T19:18:16.150Z,58.4
2019-05-18T19:35:05.524Z,58.0
2019-05-18T19:51:54.556Z,58.4
2019-05-18T20:08:43.846Z,60.0
2019-05-18T20:25:32.059Z,60.0
2019-05-18T20:42:20.333Z,60.4
2019-05-18T20:59:08.572Z,60.8
2019-05-18T21:15:56.865Z,60.8
2019-05-18T21:32:45.117Z,61.2
2019-05-18T21:49:33.198Z,61.2
2019-05-18T22:06:21.330Z,61.2
2019-05-18T22:23:09.239Z,61.6
2019-05-18T22:39:57.081Z,61.6
2019-05-18T22:56:44.979Z,61.6
2019-05-18T23:13:32.921Z,62.0
2019-05-18T23:30:20.413Z,62.0
2019-05-18T23:47:08.076Z,62.0
